sensor_id;sensor_type;location;lat;lon;timestamp;P1;durP1;ratioP1;P2;durP2;ratioP2
56381;SDS011;50261;51.150;4.470;2023-02-08T00:02:19;26.85;;;17.27;;
56381;SDS011;50261;51.150;4.470;2023-02-08T00:04:44;23.75;;;16.58;;
56381;SDS011;50261;51.150;4.470;2023-02-08T00:07:10;23.70;;;16.65;;
56381;SDS011;50261;51.150;4.470;2023-02-08T00:09:36;25.13;;;16.42;;
56381;SDS011;50261;51.150;4.470;2023-02-08T00:12:01;25.60;;;16.60;;
56381;SDS011;50261;51.150;4.470;2023-02-08T00:14:27;22.15;;;16.23;;
56381;SDS011;50261;51.150;4.470;2023-02-08T00:16:53;25.60;;;16.88;;
56381;SDS011;50261;51.150;4.470;2023-02-08T00:19:19;24.52;;;16.27;;
56381;SDS011;50261;51.150;4.470;2023-02-08T00:21:44;23.63;;;15.93;;
56381;SDS011;50261;51.150;4.470;2023-02-08T00:24:10;24.27;;;16.40;;
56381;SDS011;50261;51.150;4.470;2023-02-08T00:26:36;25.70;;;17.58;;
56381;SDS011;50261;51.150;4.470;2023-02-08T00:29:02;23.98;;;16.85;;
56381;SDS011;50261;51.150;4.470;2023-02-08T00:31:27;24.48;;;16.58;;
56381;SDS011;50261;51.150;4.470;2023-02-08T00:33:53;27.50;;;16.52;;
56381;SDS011;50261;51.150;4.470;2023-02-08T00:36:19;24.73;;;16.60;;
56381;SDS011;50261;51.150;4.470;2023-02-08T00:38:44;24.98;;;15.73;;
56381;SDS011;50261;51.150;4.470;2023-02-08T00:41:10;25.33;;;16.77;;
56381;SDS011;50261;51.150;4.470;2023-02-08T00:43:36;26.50;;;17.50;;
56381;SDS011;50261;51.150;4.470;2023-02-08T00:46:02;28.33;;;16.55;;
56381;SDS011;50261;51.150;4.470;2023-02-08T00:48:27;23.95;;;16.50;;
56381;SDS011;50261;51.150;4.470;2023-02-08T00:50:58;26.23;;;17.17;;
56381;SDS011;50261;51.150;4.470;2023-02-08T00:53:24;25.90;;;16.00;;
56381;SDS011;50261;51.150;4.470;2023-02-08T00:55:53;22.30;;;16.13;;
56381;SDS011;50261;51.150;4.470;2023-02-08T00:58:19;24.48;;;16.23;;
56381;SDS011;50261;51.150;4.470;2023-02-08T01:00:45;22.63;;;15.73;;
56381;SDS011;50261;51.150;4.470;2023-02-08T01:03:10;20.45;;;14.65;;
56381;SDS011;50261;51.150;4.470;2023-02-08T01:05:37;28.05;;;15.82;;
56381;SDS011;50261;51.150;4.470;2023-02-08T01:08:03;20.55;;;14.77;;
56381;SDS011;50261;51.150;4.470;2023-02-08T01:10:28;21.17;;;15.20;;
56381;SDS011;50261;51.150;4.470;2023-02-08T01:12:55;23.17;;;15.60;;
56381;SDS011;50261;51.150;4.470;2023-02-08T01:15:21;26.02;;;15.60;;
56381;SDS011;50261;51.150;4.470;2023-02-08T01:17:47;24.65;;;15.85;;
56381;SDS011;50261;51.150;4.470;2023-02-08T01:20:13;25.92;;;16.27;;
56381;SDS011;50261;51.150;4.470;2023-02-08T01:22:39;22.00;;;15.25;;
56381;SDS011;50261;51.150;4.470;2023-02-08T01:25:04;22.55;;;15.20;;
56381;SDS011;50261;51.150;4.470;2023-02-08T01:27:30;22.38;;;14.27;;
56381;SDS011;50261;51.150;4.470;2023-02-08T01:29:56;27.80;;;14.93;;
56381;SDS011;50261;51.150;4.470;2023-02-08T01:32:21;24.63;;;15.50;;
56381;SDS011;50261;51.150;4.470;2023-02-08T01:34:47;25.98;;;15.25;;
56381;SDS011;50261;51.150;4.470;2023-02-08T01:37:12;24.48;;;16.08;;
56381;SDS011;50261;51.150;4.470;2023-02-08T01:39:38;23.20;;;14.57;;
56381;SDS011;50261;51.150;4.470;2023-02-08T01:42:04;20.05;;;15.15;;
56381;SDS011;50261;51.150;4.470;2023-02-08T01:47:14;21.95;;;15.43;;
56381;SDS011;50261;51.150;4.470;2023-02-08T01:49:41;21.80;;;14.80;;
56381;SDS011;50261;51.150;4.470;2023-02-08T01:52:13;21.08;;;15.20;;
56381;SDS011;50261;51.150;4.470;2023-02-08T01:54:50;22.90;;;15.05;;
56381;SDS011;50261;51.150;4.470;2023-02-08T01:57:17;22.25;;;14.98;;
56381;SDS011;50261;51.150;4.470;2023-02-08T01:59:45;22.85;;;15.45;;
56381;SDS011;50261;51.150;4.470;2023-02-08T02:02:13;26.25;;;15.40;;
56381;SDS011;50261;51.150;4.470;2023-02-08T02:04:40;22.83;;;14.85;;
56381;SDS011;50261;51.150;4.470;2023-02-08T02:07:05;22.52;;;15.27;;
56381;SDS011;50261;51.150;4.470;2023-02-08T02:12:06;26.73;;;15.27;;
56381;SDS011;50261;51.150;4.470;2023-02-08T02:14:32;23.10;;;15.82;;
56381;SDS011;50261;51.150;4.470;2023-02-08T02:16:59;21.00;;;15.23;;
56381;SDS011;50261;51.150;4.470;2023-02-08T02:19:32;22.42;;;15.15;;
56381;SDS011;50261;51.150;4.470;2023-02-08T02:22:11;22.48;;;15.88;;
56381;SDS011;50261;51.150;4.470;2023-02-08T02:37:53;21.23;;;14.82;;
56381;SDS011;50261;51.150;4.470;2023-02-08T02:40:25;23.48;;;14.48;;
56381;SDS011;50261;51.150;4.470;2023-02-08T02:43:37;22.58;;;14.80;;
56381;SDS011;50261;51.150;4.470;2023-02-08T02:51:11;20.83;;;15.25;;
56381;SDS011;50261;51.150;4.470;2023-02-08T02:56:17;24.02;;;15.57;;
56381;SDS011;50261;51.150;4.470;2023-02-08T02:58:45;23.00;;;14.85;;
56381;SDS011;50261;51.150;4.470;2023-02-08T03:01:11;23.92;;;15.55;;
56381;SDS011;50261;51.150;4.470;2023-02-08T03:03:36;21.25;;;14.70;;
56381;SDS011;50261;51.150;4.470;2023-02-08T03:06:04;26.27;;;15.00;;
56381;SDS011;50261;51.150;4.470;2023-02-08T03:11:15;23.35;;;15.30;;
56381;SDS011;50261;51.150;4.470;2023-02-08T03:18:35;18.90;;;13.52;;
56381;SDS011;50261;51.150;4.470;2023-02-08T03:21:12;21.58;;;14.38;;
56381;SDS011;50261;51.150;4.470;2023-02-08T03:23:51;24.50;;;15.32;;
56381;SDS011;50261;51.150;4.470;2023-02-08T03:26:22;19.52;;;14.20;;
56381;SDS011;50261;51.150;4.470;2023-02-08T03:31:31;19.98;;;13.95;;
56381;SDS011;50261;51.150;4.470;2023-02-08T03:34:04;25.42;;;14.52;;
56381;SDS011;50261;51.150;4.470;2023-02-08T03:36:36;24.45;;;14.70;;
56381;SDS011;50261;51.150;4.470;2023-02-08T03:39:04;23.60;;;15.00;;
56381;SDS011;50261;51.150;4.470;2023-02-08T03:41:32;21.15;;;14.73;;
56381;SDS011;50261;51.150;4.470;2023-02-08T03:44:00;20.63;;;14.45;;
56381;SDS011;50261;51.150;4.470;2023-02-08T03:46:28;19.10;;;13.90;;
56381;SDS011;50261;51.150;4.470;2023-02-08T03:49:03;21.55;;;14.63;;
56381;SDS011;50261;51.150;4.470;2023-02-08T03:51:29;21.77;;;14.18;;
56381;SDS011;50261;51.150;4.470;2023-02-08T03:53:57;21.02;;;14.82;;
56381;SDS011;50261;51.150;4.470;2023-02-08T03:59:00;24.63;;;14.73;;
56381;SDS011;50261;51.150;4.470;2023-02-08T04:01:29;20.17;;;13.57;;
56381;SDS011;50261;51.150;4.470;2023-02-08T04:03:57;23.55;;;15.05;;
56381;SDS011;50261;51.150;4.470;2023-02-08T04:06:24;23.50;;;14.90;;
56381;SDS011;50261;51.150;4.470;2023-02-08T04:08:49;22.65;;;14.60;;
56381;SDS011;50261;51.150;4.470;2023-02-08T04:11:15;21.85;;;14.75;;
56381;SDS011;50261;51.150;4.470;2023-02-08T04:13:41;19.75;;;14.30;;
56381;SDS011;50261;51.150;4.470;2023-02-08T04:16:08;18.85;;;14.40;;
56381;SDS011;50261;51.150;4.470;2023-02-08T04:18:33;22.80;;;14.82;;
56381;SDS011;50261;51.150;4.470;2023-02-08T04:20:59;23.15;;;15.10;;
56381;SDS011;50261;51.150;4.470;2023-02-08T04:23:25;21.13;;;14.07;;
56381;SDS011;50261;51.150;4.470;2023-02-08T04:25:50;23.17;;;14.65;;
56381;SDS011;50261;51.150;4.470;2023-02-08T04:28:16;20.77;;;14.38;;
56381;SDS011;50261;51.150;4.470;2023-02-08T04:30:41;22.63;;;15.18;;
56381;SDS011;50261;51.150;4.470;2023-02-08T04:33:07;23.33;;;14.13;;
56381;SDS011;50261;51.150;4.470;2023-02-08T04:35:33;22.17;;;14.43;;
56381;SDS011;50261;51.150;4.470;2023-02-08T04:37:58;21.90;;;14.50;;
56381;SDS011;50261;51.150;4.470;2023-02-08T04:40:24;22.92;;;14.40;;
56381;SDS011;50261;51.150;4.470;2023-02-08T04:42:50;21.63;;;14.82;;
56381;SDS011;50261;51.150;4.470;2023-02-08T04:45:15;22.80;;;14.85;;
56381;SDS011;50261;51.150;4.470;2023-02-08T04:47:41;24.13;;;15.43;;
56381;SDS011;50261;51.150;4.470;2023-02-08T04:50:07;20.67;;;14.80;;
56381;SDS011;50261;51.150;4.470;2023-02-08T04:52:33;22.95;;;14.88;;
56381;SDS011;50261;51.150;4.470;2023-02-08T04:54:58;26.17;;;15.75;;
56381;SDS011;50261;51.150;4.470;2023-02-08T04:57:24;21.63;;;14.85;;
56381;SDS011;50261;51.150;4.470;2023-02-08T04:59:49;23.88;;;15.45;;
56381;SDS011;50261;51.150;4.470;2023-02-08T05:02:15;21.42;;;14.98;;
56381;SDS011;50261;51.150;4.470;2023-02-08T05:04:41;25.30;;;14.55;;
56381;SDS011;50261;51.150;4.470;2023-02-08T05:07:06;22.90;;;14.93;;
56381;SDS011;50261;51.150;4.470;2023-02-08T05:09:32;24.15;;;15.27;;
56381;SDS011;50261;51.150;4.470;2023-02-08T05:11:58;23.35;;;15.48;;
56381;SDS011;50261;51.150;4.470;2023-02-08T05:14:24;25.33;;;14.32;;
56381;SDS011;50261;51.150;4.470;2023-02-08T05:16:49;23.15;;;15.02;;
56381;SDS011;50261;51.150;4.470;2023-02-08T05:19:15;21.88;;;14.93;;
56381;SDS011;50261;51.150;4.470;2023-02-08T05:21:41;20.83;;;15.35;;
56381;SDS011;50261;51.150;4.470;2023-02-08T05:24:06;21.67;;;15.35;;
56381;SDS011;50261;51.150;4.470;2023-02-08T05:26:37;21.40;;;14.63;;
56381;SDS011;50261;51.150;4.470;2023-02-08T05:29:03;23.83;;;15.35;;
56381;SDS011;50261;51.150;4.470;2023-02-08T05:31:29;27.38;;;15.55;;
56381;SDS011;50261;51.150;4.470;2023-02-08T05:33:54;21.27;;;14.50;;
56381;SDS011;50261;51.150;4.470;2023-02-08T05:36:20;23.13;;;15.45;;
56381;SDS011;50261;51.150;4.470;2023-02-08T05:38:47;22.60;;;14.95;;
56381;SDS011;50261;51.150;4.470;2023-02-08T05:41:13;23.25;;;14.57;;
56381;SDS011;50261;51.150;4.470;2023-02-08T05:43:39;21.60;;;14.77;;
56381;SDS011;50261;51.150;4.470;2023-02-08T05:46:06;24.38;;;15.18;;
56381;SDS011;50261;51.150;4.470;2023-02-08T05:48:32;23.17;;;15.13;;
56381;SDS011;50261;51.150;4.470;2023-02-08T05:50:57;22.65;;;15.50;;
56381;SDS011;50261;51.150;4.470;2023-02-08T05:53:24;20.38;;;15.82;;
56381;SDS011;50261;51.150;4.470;2023-02-08T05:55:49;20.40;;;14.18;;
56381;SDS011;50261;51.150;4.470;2023-02-08T05:58:16;25.88;;;15.57;;
56381;SDS011;50261;51.150;4.470;2023-02-08T06:00:41;23.75;;;14.90;;
56381;SDS011;50261;51.150;4.470;2023-02-08T06:03:07;22.92;;;15.23;;
56381;SDS011;50261;51.150;4.470;2023-02-08T06:05:35;24.70;;;15.77;;
56381;SDS011;50261;51.150;4.470;2023-02-08T06:08:01;27.23;;;17.25;;
56381;SDS011;50261;51.150;4.470;2023-02-08T06:10:27;28.52;;;16.58;;
56381;SDS011;50261;51.150;4.470;2023-02-08T06:12:53;31.92;;;19.10;;
56381;SDS011;50261;51.150;4.470;2023-02-08T06:15:18;29.98;;;19.30;;
56381;SDS011;50261;51.150;4.470;2023-02-08T06:17:45;30.48;;;18.27;;
56381;SDS011;50261;51.150;4.470;2023-02-08T06:20:10;26.23;;;17.23;;
56381;SDS011;50261;51.150;4.470;2023-02-08T06:22:36;30.00;;;19.05;;
56381;SDS011;50261;51.150;4.470;2023-02-08T06:25:02;30.10;;;18.13;;
56381;SDS011;50261;51.150;4.470;2023-02-08T06:27:28;28.58;;;17.95;;
56381;SDS011;50261;51.150;4.470;2023-02-08T06:29:53;32.05;;;19.02;;
56381;SDS011;50261;51.150;4.470;2023-02-08T06:32:19;28.73;;;16.25;;
56381;SDS011;50261;51.150;4.470;2023-02-08T06:34:45;25.33;;;17.00;;
56381;SDS011;50261;51.150;4.470;2023-02-08T06:37:12;34.42;;;19.88;;
56381;SDS011;50261;51.150;4.470;2023-02-08T06:39:38;33.78;;;20.35;;
56381;SDS011;50261;51.150;4.470;2023-02-08T06:42:04;32.88;;;20.45;;
56381;SDS011;50261;51.150;4.470;2023-02-08T06:44:29;33.75;;;19.75;;
56381;SDS011;50261;51.150;4.470;2023-02-08T06:46:55;35.70;;;19.05;;
56381;SDS011;50261;51.150;4.470;2023-02-08T06:49:21;32.92;;;19.20;;
56381;SDS011;50261;51.150;4.470;2023-02-08T06:51:46;28.02;;;17.85;;
56381;SDS011;50261;51.150;4.470;2023-02-08T06:54:12;25.95;;;16.52;;
56381;SDS011;50261;51.150;4.470;2023-02-08T06:56:40;31.60;;;17.67;;
56381;SDS011;50261;51.150;4.470;2023-02-08T06:59:05;28.20;;;17.25;;
56381;SDS011;50261;51.150;4.470;2023-02-08T07:01:31;27.83;;;15.55;;
56381;SDS011;50261;51.150;4.470;2023-02-08T07:03:57;26.23;;;16.75;;
56381;SDS011;50261;51.150;4.470;2023-02-08T07:06:23;25.73;;;17.40;;
56381;SDS011;50261;51.150;4.470;2023-02-08T07:08:48;25.40;;;16.30;;
56381;SDS011;50261;51.150;4.470;2023-02-08T07:11:15;27.63;;;16.77;;
56381;SDS011;50261;51.150;4.470;2023-02-08T07:13:41;29.38;;;18.35;;
56381;SDS011;50261;51.150;4.470;2023-02-08T07:16:08;27.33;;;16.98;;
56381;SDS011;50261;51.150;4.470;2023-02-08T07:18:34;27.15;;;16.65;;
56381;SDS011;50261;51.150;4.470;2023-02-08T07:21:00;26.73;;;16.55;;
56381;SDS011;50261;51.150;4.470;2023-02-08T07:23:26;25.05;;;15.95;;
56381;SDS011;50261;51.150;4.470;2023-02-08T07:25:58;24.80;;;16.17;;
56381;SDS011;50261;51.150;4.470;2023-02-08T07:28:24;26.83;;;17.42;;
56381;SDS011;50261;51.150;4.470;2023-02-08T07:30:50;23.60;;;15.85;;
56381;SDS011;50261;51.150;4.470;2023-02-08T07:33:15;25.65;;;16.75;;
56381;SDS011;50261;51.150;4.470;2023-02-08T07:35:41;28.90;;;16.67;;
56381;SDS011;50261;51.150;4.470;2023-02-08T07:38:07;28.60;;;17.98;;
56381;SDS011;50261;51.150;4.470;2023-02-08T07:40:32;29.60;;;17.50;;
56381;SDS011;50261;51.150;4.470;2023-02-08T07:42:58;24.13;;;16.52;;
56381;SDS011;50261;51.150;4.470;2023-02-08T07:45:36;25.25;;;16.92;;
56381;SDS011;50261;51.150;4.470;2023-02-08T07:48:02;25.25;;;17.05;;
56381;SDS011;50261;51.150;4.470;2023-02-08T07:50:27;26.52;;;17.48;;
56381;SDS011;50261;51.150;4.470;2023-02-08T07:52:53;32.92;;;19.40;;
56381;SDS011;50261;51.150;4.470;2023-02-08T07:55:19;29.98;;;17.52;;
56381;SDS011;50261;51.150;4.470;2023-02-08T07:57:48;32.03;;;16.85;;
56381;SDS011;50261;51.150;4.470;2023-02-08T08:00:15;26.33;;;17.00;;
56381;SDS011;50261;51.150;4.470;2023-02-08T08:02:41;25.63;;;16.08;;
56381;SDS011;50261;51.150;4.470;2023-02-08T08:05:07;26.35;;;17.50;;
56381;SDS011;50261;51.150;4.470;2023-02-08T08:07:33;25.13;;;17.23;;
56381;SDS011;50261;51.150;4.470;2023-02-08T08:09:59;27.30;;;17.33;;
56381;SDS011;50261;51.150;4.470;2023-02-08T08:12:25;25.08;;;16.27;;
56381;SDS011;50261;51.150;4.470;2023-02-08T08:14:50;28.30;;;16.60;;
56381;SDS011;50261;51.150;4.470;2023-02-08T08:17:17;26.10;;;16.10;;
56381;SDS011;50261;51.150;4.470;2023-02-08T08:19:42;23.70;;;15.60;;
56381;SDS011;50261;51.150;4.470;2023-02-08T08:22:08;30.52;;;17.02;;
56381;SDS011;50261;51.150;4.470;2023-02-08T08:24:34;26.17;;;16.67;;
56381;SDS011;50261;51.150;4.470;2023-02-08T08:27:03;29.98;;;17.83;;
56381;SDS011;50261;51.150;4.470;2023-02-08T08:29:30;25.65;;;17.10;;
56381;SDS011;50261;51.150;4.470;2023-02-08T08:31:56;25.55;;;17.77;;
56381;SDS011;50261;51.150;4.470;2023-02-08T08:34:22;28.15;;;16.52;;
56381;SDS011;50261;51.150;4.470;2023-02-08T08:36:54;24.95;;;16.25;;
56381;SDS011;50261;51.150;4.470;2023-02-08T08:39:20;24.55;;;16.88;;
56381;SDS011;50261;51.150;4.470;2023-02-08T08:41:46;25.58;;;16.52;;
56381;SDS011;50261;51.150;4.470;2023-02-08T08:44:11;25.60;;;15.68;;
56381;SDS011;50261;51.150;4.470;2023-02-08T08:46:37;29.42;;;17.35;;
56381;SDS011;50261;51.150;4.470;2023-02-08T08:49:03;25.05;;;16.23;;
56381;SDS011;50261;51.150;4.470;2023-02-08T08:51:28;25.15;;;15.75;;
56381;SDS011;50261;51.150;4.470;2023-02-08T08:53:56;27.17;;;16.13;;
56381;SDS011;50261;51.150;4.470;2023-02-08T08:56:21;25.60;;;15.55;;
56381;SDS011;50261;51.150;4.470;2023-02-08T08:58:47;23.08;;;14.48;;
56381;SDS011;50261;51.150;4.470;2023-02-08T09:01:13;22.13;;;15.45;;
56381;SDS011;50261;51.150;4.470;2023-02-08T09:03:39;21.33;;;15.13;;
56381;SDS011;50261;51.150;4.470;2023-02-08T09:06:04;21.63;;;15.18;;
56381;SDS011;50261;51.150;4.470;2023-02-08T09:08:30;21.30;;;15.48;;
56381;SDS011;50261;51.150;4.470;2023-02-08T09:10:56;22.50;;;15.35;;
56381;SDS011;50261;51.150;4.470;2023-02-08T09:13:21;24.65;;;15.23;;
56381;SDS011;50261;51.150;4.470;2023-02-08T09:15:47;20.38;;;14.77;;
56381;SDS011;50261;51.150;4.470;2023-02-08T09:18:13;26.13;;;14.57;;
56381;SDS011;50261;51.150;4.470;2023-02-08T09:20:39;22.38;;;13.98;;
56381;SDS011;50261;51.150;4.470;2023-02-08T09:23:05;19.80;;;13.63;;
56381;SDS011;50261;51.150;4.470;2023-02-08T09:25:31;17.75;;;12.85;;
56381;SDS011;50261;51.150;4.470;2023-02-08T09:27:57;20.20;;;13.60;;
56381;SDS011;50261;51.150;4.470;2023-02-08T09:30:23;23.52;;;13.30;;
56381;SDS011;50261;51.150;4.470;2023-02-08T09:32:49;18.73;;;12.60;;
56381;SDS011;50261;51.150;4.470;2023-02-08T09:35:14;19.08;;;13.18;;
56381;SDS011;50261;51.150;4.470;2023-02-08T09:37:40;19.23;;;12.90;;
56381;SDS011;50261;51.150;4.470;2023-02-08T09:40:09;20.67;;;12.93;;
56381;SDS011;50261;51.150;4.470;2023-02-08T09:42:46;22.42;;;12.50;;
56381;SDS011;50261;51.150;4.470;2023-02-08T09:47:41;20.75;;;11.57;;
56381;SDS011;50261;51.150;4.470;2023-02-08T09:50:16;20.27;;;12.07;;
56381;SDS011;50261;51.150;4.470;2023-02-08T09:53:27;18.38;;;11.27;;
56381;SDS011;50261;51.150;4.470;2023-02-08T09:55:37;17.30;;;11.15;;
56381;SDS011;50261;51.150;4.470;2023-02-08T09:58:09;21.58;;;11.88;;
56381;SDS011;50261;51.150;4.470;2023-02-08T10:00:41;16.73;;;10.43;;
56381;SDS011;50261;51.150;4.470;2023-02-08T10:03:31;19.45;;;11.95;;
56381;SDS011;50261;51.150;4.470;2023-02-08T10:05:54;16.02;;;10.10;;
56381;SDS011;50261;51.150;4.470;2023-02-08T10:08:20;20.20;;;10.13;;
56381;SDS011;50261;51.150;4.470;2023-02-08T10:11:29;15.45;;;10.13;;
56381;SDS011;50261;51.150;4.470;2023-02-08T10:13:52;18.17;;;10.02;;
56381;SDS011;50261;51.150;4.470;2023-02-08T10:18:58;11.82;;;8.07;;
56381;SDS011;50261;51.150;4.470;2023-02-08T10:24:16;11.35;;;7.82;;
56381;SDS011;50261;51.150;4.470;2023-02-08T10:26:59;14.20;;;9.23;;
56381;SDS011;50261;51.150;4.470;2023-02-08T10:37:15;10.63;;;7.80;;
56381;SDS011;50261;51.150;4.470;2023-02-08T10:39:41;13.30;;;9.18;;
56381;SDS011;50261;51.150;4.470;2023-02-08T10:42:25;11.45;;;8.60;;
56381;SDS011;50261;51.150;4.470;2023-02-08T10:45:03;10.70;;;8.23;;
56381;SDS011;50261;51.150;4.470;2023-02-08T10:47:35;10.32;;;7.65;;
56381;SDS011;50261;51.150;4.470;2023-02-08T10:52:48;12.60;;;8.63;;
56381;SDS011;50261;51.150;4.470;2023-02-08T10:55:15;12.23;;;8.52;;
56381;SDS011;50261;51.150;4.470;2023-02-08T10:57:41;10.80;;;8.88;;
56381;SDS011;50261;51.150;4.470;2023-02-08T11:00:09;11.30;;;9.32;;
56381;SDS011;50261;51.150;4.470;2023-02-08T11:02:41;13.48;;;9.32;;
56381;SDS011;50261;51.150;4.470;2023-02-08T11:05:11;9.48;;;8.48;;
56381;SDS011;50261;51.150;4.470;2023-02-08T11:07:37;10.45;;;9.32;;
56381;SDS011;50261;51.150;4.470;2023-02-08T11:12:54;9.70;;;8.13;;
56381;SDS011;50261;51.150;4.470;2023-02-08T11:15:21;10.15;;;8.10;;
56381;SDS011;50261;51.150;4.470;2023-02-08T11:17:51;9.48;;;8.27;;
56381;SDS011;50261;51.150;4.470;2023-02-08T11:20:37;10.18;;;9.25;;
56381;SDS011;50261;51.150;4.470;2023-02-08T11:23:03;11.43;;;9.13;;
56381;SDS011;50261;51.150;4.470;2023-02-08T11:25:34;10.38;;;9.32;;
56381;SDS011;50261;51.150;4.470;2023-02-08T11:28:00;10.35;;;9.25;;
56381;SDS011;50261;51.150;4.470;2023-02-08T11:30:26;11.98;;;9.57;;
56381;SDS011;50261;51.150;4.470;2023-02-08T11:35:57;11.07;;;9.27;;
56381;SDS011;50261;51.150;4.470;2023-02-08T11:38:23;11.57;;;8.90;;
56381;SDS011;50261;51.150;4.470;2023-02-08T11:40:56;11.80;;;8.27;;
56381;SDS011;50261;51.150;4.470;2023-02-08T11:43:27;8.05;;;7.25;;
56381;SDS011;50261;51.150;4.470;2023-02-08T11:45:54;9.63;;;8.05;;
56381;SDS011;50261;51.150;4.470;2023-02-08T11:50:51;12.20;;;7.53;;
56381;SDS011;50261;51.150;4.470;2023-02-08T11:53:24;9.38;;;7.28;;
56381;SDS011;50261;51.150;4.470;2023-02-08T11:56:06;9.15;;;7.03;;
56381;SDS011;50261;51.150;4.470;2023-02-08T11:58:38;10.07;;;7.30;;
56381;SDS011;50261;51.150;4.470;2023-02-08T12:01:27;8.18;;;7.38;;
56381;SDS011;50261;51.150;4.470;2023-02-08T12:03:50;7.70;;;6.68;;
56381;SDS011;50261;51.150;4.470;2023-02-08T12:08:46;8.55;;;7.65;;
56381;SDS011;50261;51.150;4.470;2023-02-08T12:23:49;6.97;;;5.75;;
56381;SDS011;50261;51.150;4.470;2023-02-08T12:29:14;6.43;;;5.32;;
56381;SDS011;50261;51.150;4.470;2023-02-08T12:40:23;5.10;;;4.70;;
56381;SDS011;50261;51.150;4.470;2023-02-08T12:52:50;5.97;;;4.55;;
56381;SDS011;50261;51.150;4.470;2023-02-08T12:55:23;6.35;;;3.95;;
56381;SDS011;50261;51.150;4.470;2023-02-08T12:57:51;6.25;;;4.07;;
56381;SDS011;50261;51.150;4.470;2023-02-08T13:00:20;7.13;;;4.28;;
56381;SDS011;50261;51.150;4.470;2023-02-08T13:05:22;4.65;;;3.90;;
56381;SDS011;50261;51.150;4.470;2023-02-08T13:07:52;4.97;;;4.25;;
56381;SDS011;50261;51.150;4.470;2023-02-08T13:12:51;4.30;;;3.53;;
56381;SDS011;50261;51.150;4.470;2023-02-08T13:15:24;4.50;;;3.53;;
56381;SDS011;50261;51.150;4.470;2023-02-08T13:17:54;6.00;;;3.70;;
56381;SDS011;50261;51.150;4.470;2023-02-08T13:20:40;6.50;;;3.80;;
56381;SDS011;50261;51.150;4.470;2023-02-08T13:23:41;7.20;;;4.20;;
56381;SDS011;50261;51.150;4.470;2023-02-08T13:26:00;5.38;;;3.65;;
56381;SDS011;50261;51.150;4.470;2023-02-08T13:28:26;4.32;;;3.33;;
56381;SDS011;50261;51.150;4.470;2023-02-08T13:31:03;4.65;;;3.45;;
56381;SDS011;50261;51.150;4.470;2023-02-08T13:33:35;4.45;;;3.50;;
56381;SDS011;50261;51.150;4.470;2023-02-08T13:36:03;5.47;;;3.05;;
56381;SDS011;50261;51.150;4.470;2023-02-08T13:38:30;4.43;;;3.38;;
56381;SDS011;50261;51.150;4.470;2023-02-08T13:41:15;5.43;;;3.00;;
56381;SDS011;50261;51.150;4.470;2023-02-08T13:43:52;4.57;;;2.67;;
56381;SDS011;50261;51.150;4.470;2023-02-08T13:46:19;5.03;;;3.15;;
56381;SDS011;50261;51.150;4.470;2023-02-08T13:48:53;4.25;;;3.20;;
56381;SDS011;50261;51.150;4.470;2023-02-08T13:59:23;4.93;;;2.63;;
56381;SDS011;50261;51.150;4.470;2023-02-08T14:04:45;4.15;;;2.80;;
56381;SDS011;50261;51.150;4.470;2023-02-08T14:07:36;3.50;;;2.63;;
56381;SDS011;50261;51.150;4.470;2023-02-08T14:12:53;3.85;;;3.03;;
56381;SDS011;50261;51.150;4.470;2023-02-08T14:17:44;4.63;;;3.25;;
56381;SDS011;50261;51.150;4.470;2023-02-08T14:23:21;7.40;;;3.08;;
56381;SDS011;50261;51.150;4.470;2023-02-08T14:25:48;8.17;;;3.37;;
56381;SDS011;50261;51.150;4.470;2023-02-08T14:30:50;4.80;;;3.08;;
56381;SDS011;50261;51.150;4.470;2023-02-08T14:33:18;3.75;;;3.20;;
56381;SDS011;50261;51.150;4.470;2023-02-08T14:35:49;4.35;;;2.83;;
56381;SDS011;50261;51.150;4.470;2023-02-08T14:40:46;4.57;;;3.00;;
56381;SDS011;50261;51.150;4.470;2023-02-08T14:45:51;3.83;;;2.90;;
56381;SDS011;50261;51.150;4.470;2023-02-08T14:58:38;3.95;;;3.05;;
56381;SDS011;50261;51.150;4.470;2023-02-08T15:01:51;4.00;;;2.83;;
56381;SDS011;50261;51.150;4.470;2023-02-08T15:03:52;4.47;;;2.72;;
56381;SDS011;50261;51.150;4.470;2023-02-08T15:09:12;4.28;;;2.40;;
56381;SDS011;50261;51.150;4.470;2023-02-08T15:11:39;4.75;;;3.13;;
56381;SDS011;50261;51.150;4.470;2023-02-08T15:14:05;5.53;;;2.80;;
56381;SDS011;50261;51.150;4.470;2023-02-08T15:16:35;4.95;;;3.17;;
56381;SDS011;50261;51.150;4.470;2023-02-08T15:19:04;4.22;;;2.90;;
56381;SDS011;50261;51.150;4.470;2023-02-08T15:21:31;5.95;;;3.13;;
56381;SDS011;50261;51.150;4.470;2023-02-08T15:24:02;3.90;;;3.15;;
56381;SDS011;50261;51.150;4.470;2023-02-08T15:26:28;7.35;;;3.38;;
56381;SDS011;50261;51.150;4.470;2023-02-08T15:28:54;6.50;;;3.40;;
56381;SDS011;50261;51.150;4.470;2023-02-08T15:31:20;4.53;;;3.17;;
56381;SDS011;50261;51.150;4.470;2023-02-08T15:33:47;4.93;;;3.08;;
56381;SDS011;50261;51.150;4.470;2023-02-08T15:36:35;5.10;;;3.20;;
56381;SDS011;50261;51.150;4.470;2023-02-08T15:39:01;4.97;;;3.47;;
56381;SDS011;50261;51.150;4.470;2023-02-08T15:41:31;6.13;;;3.00;;
56381;SDS011;50261;51.150;4.470;2023-02-08T15:46:42;5.35;;;3.20;;
56381;SDS011;50261;51.150;4.470;2023-02-08T15:49:51;6.55;;;3.47;;
56381;SDS011;50261;51.150;4.470;2023-02-08T15:51:57;5.07;;;3.40;;
56381;SDS011;50261;51.150;4.470;2023-02-08T15:54:23;6.47;;;3.50;;
56381;SDS011;50261;51.150;4.470;2023-02-08T15:56:51;6.57;;;3.33;;
56381;SDS011;50261;51.150;4.470;2023-02-08T15:59:19;7.88;;;3.22;;
56381;SDS011;50261;51.150;4.470;2023-02-08T16:01:46;5.35;;;3.25;;
56381;SDS011;50261;51.150;4.470;2023-02-08T16:04:12;5.50;;;3.03;;
56381;SDS011;50261;51.150;4.470;2023-02-08T16:06:39;7.15;;;3.00;;
56381;SDS011;50261;51.150;4.470;2023-02-08T16:09:12;4.68;;;2.60;;
56381;SDS011;50261;51.150;4.470;2023-02-08T16:11:41;8.93;;;3.30;;
56381;SDS011;50261;51.150;4.470;2023-02-08T16:14:12;6.88;;;3.00;;
56381;SDS011;50261;51.150;4.470;2023-02-08T16:16:40;5.47;;;2.90;;
56381;SDS011;50261;51.150;4.470;2023-02-08T16:19:23;4.82;;;3.08;;
56381;SDS011;50261;51.150;4.470;2023-02-08T16:21:48;6.22;;;2.97;;
56381;SDS011;50261;51.150;4.470;2023-02-08T16:31:55;6.97;;;3.70;;
56381;SDS011;50261;51.150;4.470;2023-02-08T16:34:21;8.05;;;3.45;;
56381;SDS011;50261;51.150;4.470;2023-02-08T16:36:51;4.32;;;3.25;;
56381;SDS011;50261;51.150;4.470;2023-02-08T16:44:24;4.07;;;3.00;;
56381;SDS011;50261;51.150;4.470;2023-02-08T16:46:51;6.15;;;4.00;;
56381;SDS011;50261;51.150;4.470;2023-02-08T16:49:17;4.95;;;3.45;;
56381;SDS011;50261;51.150;4.470;2023-02-08T16:51:42;6.50;;;3.55;;
56381;SDS011;50261;51.150;4.470;2023-02-08T16:54:17;6.07;;;3.53;;
56381;SDS011;50261;51.150;4.470;2023-02-08T16:56:43;7.85;;;4.80;;
56381;SDS011;50261;51.150;4.470;2023-02-08T16:59:16;7.22;;;4.90;;
56381;SDS011;50261;51.150;4.470;2023-02-08T17:01:42;7.57;;;5.03;;
56381;SDS011;50261;51.150;4.470;2023-02-08T17:04:10;7.60;;;5.20;;
56381;SDS011;50261;51.150;4.470;2023-02-08T17:06:37;9.25;;;5.70;;
56381;SDS011;50261;51.150;4.470;2023-02-08T17:09:05;8.68;;;5.88;;
56381;SDS011;50261;51.150;4.470;2023-02-08T17:11:31;9.85;;;6.63;;
56381;SDS011;50261;51.150;4.470;2023-02-08T17:13:57;14.45;;;6.80;;
56381;SDS011;50261;51.150;4.470;2023-02-08T17:16:23;9.85;;;5.70;;
56381;SDS011;50261;51.150;4.470;2023-02-08T17:18:50;10.20;;;5.78;;